^^
Station Historical Data
Daily Summary for June 6, 2017 Units:  English    Metric   Both
« Previous Day
Next Day »
Daily Weekly Monthly Yearly Custom
  High: Low: Average:
Temperature: 65.6 °F 55.1 °F 60.2 °F
Dew Point: 63.2 °F 53.1 °F 57.5 °F
Humidity: 96 % 80 % 91 %
Wind Speed: 4.8 mph 0.0 mph 0.2 mph
Wind Gust: 8.1 mph - -
Wind:- - ENE
Pressure: 29.90 in 29.65 in -
Precipitation: 1.29 in    
Historical Graphs
 
 
Tabular Data for June 6, 2017
Time Temperature Dew Point Pressure Wind Wind Speed Wind Gust Humidity Rainfall Rate (Hourly) solar Conditions
00:03 65.6 °F 63.2 °F 29.68 in Calm     92 % 0.00 in 0.0 W/m2 RA
00:08 65.6 °F 63.2 °F 29.68 in Calm     92 % 0.00 in 0.0 W/m2 RA
00:13 65.5 °F 63.1 °F 29.67 in Calm   1.2 mph 92 % 0.00 in 0.0 W/m2 OVC
00:18 65.3 °F 62.9 °F 29.67 in Calm   1.2 mph 92 % 0.00 in 0.0 W/m2 OVC
00:23 65.3 °F 62.9 °F 29.67 in Calm   2.3 mph 92 % 0.00 in 0.0 W/m2 OVC
00:28 65.2 °F 62.8 °F 29.67 in Calm   2.3 mph 92 % 0.00 in 0.0 W/m2 OVC
00:33 65.1 °F 62.7 °F 29.67 in Calm   1.2 mph 92 % 0.00 in 0.0 W/m2 OVC
00:38 65.0 °F 62.6 °F 29.67 in Calm     92 % 0.00 in 0.0 W/m2 OVC
00:43 65.0 °F 62.6 °F 29.67 in Calm     92 % 0.00 in 0.0 W/m2 OVC
00:48 65.0 °F 62.6 °F 29.67 in Calm     92 % 0.00 in 0.0 W/m2 OVC
00:53 65.1 °F 62.7 °F 29.67 in Calm     92 % 0.00 in 0.0 W/m2 OVC
00:59 65.1 °F 62.7 °F 29.67 in Calm     92 % 0.00 in 0.0 W/m2 OVC
01:04 65.1 °F 62.7 °F 29.67 in Calm     92 % 0.00 in 0.0 W/m2 OVC
01:09 65.2 °F 62.8 °F 29.67 in Calm     92 % 0.00 in 0.0 W/m2 OVC
01:14 65.1 °F 62.7 °F 29.67 in Calm     92 % 0.00 in 0.0 W/m2 OVC
01:19 65.1 °F 62.7 °F 29.66 in Calm     92 % 0.00 in 0.0 W/m2 OVC
01:24 65.1 °F 62.7 °F 29.67 in Calm     92 % 0.00 in 0.0 W/m2 OVC
01:29 65.1 °F 62.7 °F 29.67 in Calm     92 % 0.00 in 0.0 W/m2 OVC
01:34 65.2 °F 62.8 °F 29.66 in Calm     92 % 0.00 in 0.0 W/m2 OVC
01:39 65.2 °F 62.5 °F 29.67 in Calm     91 % 0.00 in 0.0 W/m2 OVC
01:44 65.2 °F 62.5 °F 29.66 in Calm   1.2 mph 91 % 0.00 in 0.0 W/m2 OVC
01:49 65.1 °F 62.4 °F 29.66 in SE 0.2 mph 1.2 mph 91 % 0.00 in 0.0 W/m2 OVC
01:54 64.7 °F 62.0 °F 29.66 in Calm   3.5 mph 91 % 0.00 in 0.0 W/m2 OVC
01:59 64.4 °F 61.7 °F 29.66 in Calm   3.5 mph 91 % 0.00 in 0.0 W/m2 OVC
02:04 64.1 °F 61.4 °F 29.66 in Calm   3.5 mph 91 % 0.00 in 0.0 W/m2 OVC
02:09 63.8 °F 61.1 °F 29.66 in Calm   1.2 mph 91 % 0.00 in 0.0 W/m2 OVC
02:14 63.6 °F 60.9 °F 29.66 in Calm   1.2 mph 91 % 0.00 in 0.0 W/m2 OVC
02:19 63.4 °F 61.0 °F 29.66 in SE 0.2 mph 1.2 mph 92 % 0.00 in 0.0 W/m2 OVC
02:24 63.2 °F 60.8 °F 29.66 in Calm   1.2 mph 92 % 0.00 in 0.0 W/m2 OVC
02:29 63.0 °F 60.6 °F 29.66 in Calm   1.2 mph 92 % 0.00 in 0.0 W/m2 OVC
02:34 62.8 °F 60.4 °F 29.66 in Calm   3.5 mph 92 % 0.00 in 0.0 W/m2 OVC
02:39 62.4 °F 60.0 °F 29.66 in East 0.1 mph 3.5 mph 92 % 0.00 in 0.0 W/m2 OVC
02:44 62.2 °F 59.8 °F 29.65 in East 0.4 mph 3.5 mph 92 % 0.00 in 0.0 W/m2 OVC
02:49 62.1 °F 59.7 °F 29.65 in Calm   3.5 mph 92 % 0.00 in 0.0 W/m2 OVC
02:54 62.0 °F 59.6 °F 29.65 in Calm   3.5 mph 92 % 0.00 in 0.0 W/m2 OVC
02:59 61.8 °F 59.5 °F 29.65 in Calm   1.2 mph 92 % 0.00 in 0.0 W/m2 OVC
03:04 61.7 °F 59.4 °F 29.65 in Calm   1.2 mph 92 % 0.00 in 0.0 W/m2 OVC
03:09 61.6 °F 59.6 °F 29.65 in Calm     93 % 0.00 in 0.0 W/m2 OVC
03:14 61.7 °F 59.7 °F 29.66 in Calm     93 % 0.00 in 0.0 W/m2 OVC
03:20 61.4 °F 59.4 °F 29.67 in Calm     93 % 0.03 in 0.0 W/m2 RA
03:24 61.5 °F 59.5 °F 29.68 in North 0.7 mph 3.5 mph 93 % 0.12 in 0.0 W/m2 RA
03:29 61.4 °F 59.4 °F 29.67 in Calm   5.8 mph 93 % 0.29 in 0.0 W/m2 RA
03:34 61.2 °F 59.2 °F 29.67 in Calm   5.8 mph 93 % 0.42 in 0.0 W/m2 RA
03:40 61.1 °F 59.1 °F 29.68 in Calm   1.2 mph 93 % 0.56 in 0.0 W/m2 RA
03:45 60.8 °F 58.8 °F 29.67 in Calm     93 % 0.70 in 0.0 W/m2 RA
03:50 60.7 °F 58.7 °F 29.68 in Calm     93 % 0.25 in 0.0 W/m2 +RA
03:55 60.5 °F 58.5 °F 29.67 in Calm     93 % 0.20 in 0.0 W/m2 +RA
04:00 60.4 °F 58.7 °F 29.67 in Calm     94 % 0.95 in 0.0 W/m2 +RA
04:05 60.3 °F 58.6 °F 29.66 in Calm     94 % 0.00 in 0.0 W/m2 +RA
04:10 60.3 °F 58.6 °F 29.66 in Calm     94 % 0.98 in 0.0 W/m2 +RA
04:12 60.3 °F 58.6 °F 29.66 in Calm     94 % 0.99 in 0.0 W/m2 +RA
04:17 60.2 °F 58.5 °F 29.66 in Calm     94 % 1.00 in 0.0 W/m2 RA
04:22 60.3 °F 58.6 °F 29.67 in Calm     94 % 0.94 in 0.0 W/m2 RA
04:27 60.2 °F 58.5 °F 29.67 in Calm     94 % 0.83 in 0.0 W/m2 RA
04:32 60.1 °F 58.4 °F 29.67 in Calm     94 % 0.68 in 0.0 W/m2 RA
04:37 60.0 °F 58.3 °F 29.66 in Calm     94 % 0.57 in 0.0 W/m2 RA
04:42 60.0 °F 58.3 °F 29.66 in Calm     94 % 0.41 in 0.0 W/m2 OVC
04:47 60.0 °F 58.3 °F 29.66 in Calm     94 % 0.29 in 0.0 W/m2 OVC
04:52 59.9 °F 58.5 °F 29.66 in Calm     95 % 0.19 in 0.0 W/m2 OVC
04:57 60.0 °F 58.6 °F 29.66 in Calm     95 % 0.12 in 0.0 W/m2 OVC
05:02 60.0 °F 58.6 °F 29.66 in Calm     95 % 0.09 in 0.0 W/m2 OVC
05:07 60.0 °F 58.6 °F 29.66 in Calm     95 % 0.08 in 0.0 W/m2 OVC
05:12 59.9 °F 58.5 °F 29.67 in Calm     95 % 0.07 in 0.0 W/m2 OVC
05:17 60.0 °F 58.6 °F 29.67 in Calm     95 % 0.05 in 0.0 W/m2 OVC
05:23 60.0 °F 58.6 °F 29.67 in Calm     95 % 0.04 in 0.0 W/m2 OVC
05:28 60.0 °F 58.6 °F 29.67 in Calm     95 % 0.01 in 0.0 W/m2 OVC
05:33 60.0 °F 58.6 °F 29.67 in Calm     95 % 0.00 in 0.0 W/m2 OVC
05:38 59.9 °F 58.5 °F 29.67 in Calm     95 % 0.00 in 0.0 W/m2 OVC
05:43 60.0 °F 58.6 °F 29.67 in Calm     95 % 0.00 in 0.0 W/m2 OVC
05:48 59.9 °F 58.5 °F 29.68 in Calm     95 % 0.00 in 0.0 W/m2 OVC
05:53 60.0 °F 58.6 °F 29.68 in Calm     95 % 0.00 in 0.0 W/m2 OVC
05:58 60.0 °F 58.6 °F 29.68 in Calm     95 % 0.00 in 0.0 W/m2 OVC
06:03 60.0 °F 58.6 °F 29.69 in Calm   1.2 mph 95 % 0.00 in 5.0 W/m2 OVC
06:08 59.9 °F 58.5 °F 29.69 in Calm   1.2 mph 95 % 0.00 in 7.0 W/m2 OVC
06:13 59.8 °F 58.4 °F 29.69 in Calm     95 % 0.00 in 7.0 W/m2 OVC
06:18 59.8 °F 58.4 °F 29.70 in Calm     95 % 0.00 in 5.0 W/m2 OVC
06:23 59.8 °F 58.4 °F 29.70 in Calm     95 % 0.00 in 5.0 W/m2 OVC
06:28 59.9 °F 58.5 °F 29.70 in Calm     95 % 0.00 in 0.0 W/m2 OVC
06:33 59.8 °F 58.4 °F 29.70 in Calm     95 % 0.00 in 5.0 W/m2 OVC
06:38 59.7 °F 58.3 °F 29.70 in Calm     95 % 0.00 in 5.0 W/m2 OVC
06:43 59.5 °F 58.1 °F 29.70 in Calm   1.2 mph 95 % 0.00 in 9.0 W/m2 OVC
06:48 59.4 °F 58.0 °F 29.70 in Calm   1.2 mph 95 % 0.00 in 16.0 W/m2 OVC
06:53 59.2 °F 57.8 °F 29.70 in Calm     95 % 0.00 in 11.0 W/m2 OVC
06:58 59.1 °F 57.7 °F 29.70 in Calm   2.3 mph 95 % 0.00 in 14.0 W/m2 OVC
07:03 58.7 °F 57.3 °F 29.70 in Calm   2.3 mph 95 % 0.00 in 18.0 W/m2 OVC
07:08 58.6 °F 57.2 °F 29.70 in Calm   2.3 mph 95 % 0.00 in 32.0 W/m2 OVC
07:13 58.6 °F 57.2 °F 29.71 in Calm   2.3 mph 95 % 0.00 in 26.0 W/m2 OVC
07:18 58.5 °F 57.1 °F 29.71 in Calm   1.2 mph 95 % 0.00 in 21.0 W/m2 OVC
07:23 58.4 °F 57.0 °F 29.71 in Calm   1.2 mph 95 % 0.00 in 28.0 W/m2 OVC
07:28 58.4 °F 57.0 °F 29.72 in Calm   1.2 mph 95 % 0.00 in 37.0 W/m2 OVC
07:33 58.2 °F 56.8 °F 29.71 in North 0.2 mph 3.5 mph 95 % 0.00 in 23.0 W/m2 OVC
07:38 58.1 °F 56.7 °F 29.71 in NNE 0.7 mph 3.5 mph 95 % 0.00 in 28.0 W/m2 OVC
07:43 57.8 °F 56.4 °F 29.71 in NNE 0.2 mph 3.5 mph 95 % 0.00 in 39.0 W/m2 OVC
07:48 57.7 °F 56.3 °F 29.71 in NNE 0.1 mph 3.5 mph 95 % 0.00 in 25.0 W/m2 OVC
07:53 57.7 °F 56.3 °F 29.71 in Calm   3.5 mph 95 % 0.00 in 37.0 W/m2 OVC
07:58 57.8 °F 56.4 °F 29.71 in Calm   3.5 mph 95 % 0.00 in 46.0 W/m2 OVC
08:03 57.8 °F 56.4 °F 29.71 in Calm   2.3 mph 95 % 0.00 in 51.0 W/m2 OVC
08:08 57.9 °F 56.5 °F 29.72 in Calm   1.2 mph 95 % 0.00 in 53.0 W/m2 OVC
08:13 57.8 °F 56.4 °F 29.72 in NNE 0.1 mph 2.3 mph 95 % 0.00 in 51.0 W/m2 OVC
08:18 57.8 °F 56.4 °F 29.72 in NNE 0.1 mph 2.3 mph 95 % 0.00 in 65.0 W/m2 OVC
08:23 57.6 °F 56.2 °F 29.73 in Calm   1.2 mph 95 % 0.00 in 58.0 W/m2 OVC
08:28 57.6 °F 56.2 °F 29.73 in Calm   1.2 mph 95 % 0.00 in 62.0 W/m2 OVC
08:33 57.5 °F 56.1 °F 29.73 in Calm   1.2 mph 95 % 0.00 in 88.0 W/m2 OVC
08:39 57.7 °F 56.6 °F 29.73 in Calm   1.2 mph 96 % 0.00 in 70.0 W/m2 OVC
08:44 57.8 °F 56.7 °F 29.73 in Calm   1.2 mph 96 % 0.01 in 113.0 W/m2 RA
08:49 58.0 °F 56.9 °F 29.73 in Calm   1.2 mph 96 % 0.01 in 84.0 W/m2 RA
08:54 58.0 °F 56.9 °F 29.73 in Calm   1.2 mph 96 % 0.01 in 88.0 W/m2 OVC
08:59 57.8 °F 56.4 °F 29.73 in Calm   2.3 mph 95 % 0.01 in 65.0 W/m2 OVC
09:04 57.8 °F 56.4 °F 29.73 in NNE 0.1 mph 2.3 mph 95 % 0.01 in 109.0 W/m2 OVC
09:09 57.4 °F 56.0 °F 29.73 in Calm   3.5 mph 95 % 0.01 in 130.0 W/m2 OVC
09:14 57.4 °F 56.3 °F 29.73 in Calm   3.5 mph 96 % 0.01 in 156.0 W/m2 OVC
09:19 57.4 °F 56.3 °F 29.73 in Calm   3.5 mph 96 % 0.01 in 151.0 W/m2 OVC
09:24 57.4 °F 56.3 °F 29.74 in Calm   1.2 mph 96 % 0.01 in 76.0 W/m2 OVC
09:29 57.3 °F 55.9 °F 29.74 in Calm   1.2 mph 95 % 0.01 in 49.0 W/m2 OVC
09:34 57.2 °F 55.8 °F 29.75 in NNE 0.2 mph 1.2 mph 95 % 0.05 in 67.0 W/m2 RA
09:35 57.1 °F 55.7 °F 29.74 in NNE 0.2 mph 2.3 mph 95 % 0.06 in 79.0 W/m2 RA
09:40 57.0 °F 55.6 °F 29.75 in NNE 0.1 mph 2.3 mph 95 % 0.08 in 86.0 W/m2 RA
09:45 57.4 °F 56.3 °F 29.74 in Calm   2.3 mph 96 % 0.07 in 188.0 W/m2 RA
09:46 57.4 °F 56.3 °F 29.74 in Calm   1.2 mph 96 % 0.07 in 216.0 W/m2 RA
09:51 57.5 °F 56.4 °F 29.74 in Calm     96 % 0.07 in 183.0 W/m2 OVC
09:56 57.5 °F 56.1 °F 29.74 in Calm   1.2 mph 95 % 0.07 in 158.0 W/m2 OVC
10:01 57.9 °F 56.8 °F 29.74 in Calm   1.2 mph 96 % 0.07 in 130.0 W/m2 -RA
10:06 58.0 °F 56.6 °F 29.74 in Calm     95 % 0.07 in 120.0 W/m2 -RA
10:11 58.0 °F 56.9 °F 29.74 in Calm     96 % 0.07 in 130.0 W/m2 -RA
10:16 57.9 °F 56.5 °F 29.74 in Calm     95 % 0.07 in 144.0 W/m2 -RA
10:21 58.0 °F 56.6 °F 29.74 in Calm     95 % 0.07 in 142.0 W/m2 -RA
10:26 57.9 °F 56.5 °F 29.74 in Calm   2.3 mph 95 % 0.07 in 107.0 W/m2 -RA
10:31 57.9 °F 56.5 °F 29.74 in Calm   2.3 mph 95 % 0.05 in 95.0 W/m2 -RA
10:36 58.3 °F 57.2 °F 29.75 in Calm   2.3 mph 96 % 0.01 in 93.0 W/m2 -RA
10:41 57.9 °F 56.5 °F 29.75 in Calm   1.2 mph 95 % 0.00 in 148.0 W/m2 -RA
10:46 57.8 °F 56.4 °F 29.75 in Calm   1.2 mph 95 % 0.00 in 165.0 W/m2 -RA
10:51 57.8 °F 56.4 °F 29.75 in Calm   1.2 mph 95 % 0.00 in 137.0 W/m2 OVC
10:56 58.0 °F 56.6 °F 29.75 in Calm   1.2 mph 95 % 0.00 in 116.0 W/m2 OVC
11:01 58.0 °F 56.6 °F 29.75 in Calm   1.2 mph 95 % 0.00 in 121.0 W/m2 -RA
11:06 58.1 °F 56.7 °F 29.75 in Calm     95 % 0.00 in 109.0 W/m2 -RA
11:11 58.4 °F 57.0 °F 29.75 in Calm     95 % 0.00 in 172.0 W/m2 -RA
11:17 58.3 °F 56.9 °F 29.75 in Calm   1.2 mph 95 % 0.00 in 88.0 W/m2 -RA
11:22 57.9 °F 56.5 °F 29.75 in Calm   1.2 mph 95 % 0.00 in 81.0 W/m2 -RA
11:27 58.0 °F 56.6 °F 29.75 in Calm     95 % 0.01 in 244.0 W/m2 -RA
11:32 58.5 °F 57.1 °F 29.75 in Calm     95 % 0.01 in 234.0 W/m2 -RA
11:37 58.8 °F 57.7 °F 29.75 in Calm   1.2 mph 96 % 0.01 in 294.0 W/m2 -RA
11:42 59.2 °F 58.1 °F 29.75 in Calm   1.2 mph 96 % 0.01 in 450.0 W/m2 -RA
11:47 59.0 °F 57.6 °F 29.75 in Calm   1.2 mph 95 % 0.01 in 371.0 W/m2 -RA
11:52 59.6 °F 58.5 °F 29.75 in Calm   1.2 mph 96 % 0.01 in 628.0 W/m2 -RA
11:57 59.8 °F 58.4 °F 29.74 in Calm   3.5 mph 95 % 0.01 in 1269.0 W/m2 -RA
12:02 60.6 °F 59.2 °F 29.74 in Calm   3.5 mph 95 % 0.01 in 1037.0 W/m2 OVC
12:07 60.5 °F 59.1 °F 29.74 in SE 0.5 mph 3.5 mph 95 % 0.01 in 1037.0 W/m2 OVC
12:12 60.3 °F 58.6 °F 29.74 in Calm   2.3 mph 94 % 0.01 in 334.0 W/m2 OVC
12:17 60.1 °F 58.1 °F 29.75 in Calm   2.3 mph 93 % 0.01 in 315.0 W/m2 OVC
12:22 60.2 °F 58.2 °F 29.74 in Calm     93 % 0.01 in 285.0 W/m2 OVC
12:27 60.6 °F 58.6 °F 29.74 in SE 0.4 mph 2.3 mph 93 % 0.00 in 469.0 W/m2 OVC
12:32 61.3 °F 59.3 °F 29.74 in Calm   2.3 mph 93 % 0.00 in 311.0 W/m2 OVC
12:37 60.8 °F 58.5 °F 29.75 in Calm   2.3 mph 92 % 0.00 in 250.0 W/m2 OVC
12:42 60.7 °F 58.1 °F 29.75 in Calm     91 % 0.00 in 181.0 W/m2 OVC
12:47 60.9 °F 58.3 °F 29.75 in Calm     91 % 0.00 in 134.0 W/m2 OVC
12:52 60.8 °F 58.2 °F 29.75 in NE 0.6 mph 3.5 mph 91 % 0.00 in 290.0 W/m2 OVC
12:57 61.1 °F 58.5 °F 29.75 in NE 0.5 mph 3.5 mph 91 % 0.00 in 373.0 W/m2 OVC
13:02 61.5 °F 58.8 °F 29.74 in Calm   3.5 mph 91 % 0.00 in 608.0 W/m2 OVC
13:07 62.1 °F 59.1 °F 29.74 in NE 0.5 mph 3.5 mph 90 % 0.00 in 673.0 W/m2 OVC
13:12 62.5 °F 59.5 °F 29.74 in North 1.1 mph 4.6 mph 90 % 0.00 in 624.0 W/m2 OVC
13:17 62.4 °F 58.8 °F 29.74 in NE 1.5 mph 4.6 mph 88 % 0.00 in 376.0 W/m2 OVC
13:22 62.1 °F 58.2 °F 29.74 in NNE 1.1 mph 3.5 mph 87 % 0.00 in 334.0 W/m2 OVC
13:27 62.2 °F 58.6 °F 29.74 in Calm   5.8 mph 88 % 0.00 in 418.0 W/m2 OVC
13:32 62.4 °F 58.8 °F 29.74 in Calm   5.8 mph 88 % 0.00 in 429.0 W/m2 OVC
13:37 63.3 °F 59.7 °F 29.74 in NNE 1.5 mph 4.6 mph 88 % 0.00 in 657.0 W/m2 OVC
13:42 62.9 °F 58.6 °F 29.74 in Calm   3.5 mph 86 % 0.00 in 628.0 W/m2 OVC
13:47 63.3 °F 59.0 °F 29.74 in NE 0.3 mph 3.5 mph 86 % 0.00 in 315.0 W/m2 OVC
13:52 63.4 °F 59.1 °F 29.74 in NNE 2.5 mph 3.5 mph 86 % 0.00 in 585.0 W/m2 OVC
13:57 62.7 °F 58.1 °F 29.74 in Calm   5.8 mph 85 % 0.00 in 573.0 W/m2 OVC
14:02 63.6 °F 59.0 °F 29.74 in NE 0.3 mph 5.8 mph 85 % 0.00 in 1083.0 W/m2 OVC
14:07 64.4 °F 59.8 °F 29.74 in NE 0.2 mph 3.5 mph 85 % 0.00 in 1204.0 W/m2 OVC
14:12 64.8 °F 59.5 °F 29.74 in Calm   3.5 mph 83 % 0.00 in 1220.0 W/m2 OVC
14:18 64.3 °F 58.7 °F 29.74 in Calm   3.5 mph 82 % 0.00 in 225.0 W/m2 OVC
14:23 64.2 °F 58.9 °F 29.74 in NE 0.3 mph 3.5 mph 83 % 0.00 in 1146.0 W/m2 OVC
14:28 64.6 °F 58.6 °F 29.75 in Calm   3.5 mph 81 % 0.00 in 322.0 W/m2 OVC
14:33 63.8 °F 57.5 °F 29.75 in NNE 1.0 mph 4.6 mph 80 % 0.00 in 246.0 W/m2 OVC
14:38 64.1 °F 58.5 °F 29.74 in NNE 0.1 mph 4.6 mph 82 % 0.00 in 292.0 W/m2 OVC
14:43 64.4 °F 58.8 °F 29.75 in Calm   3.5 mph 82 % 0.00 in 1011.0 W/m2 OVC
14:48 64.7 °F 59.1 °F 29.75 in Calm   2.3 mph 82 % 0.00 in 308.0 W/m2 OVC
14:53 64.7 °F 58.7 °F 29.75 in NNE 4.8 mph 6.9 mph 81 % 0.00 in 216.0 W/m2 OVC
14:58 64.3 °F 58.3 °F 29.75 in NNE 2.8 mph 6.9 mph 81 % 0.00 in 165.0 W/m2 OVC
15:03 63.7 °F 58.1 °F 29.75 in ENE 0.6 mph 6.9 mph 82 % 0.00 in 123.0 W/m2 OVC
15:08 63.2 °F 57.6 °F 29.75 in North 1.6 mph 6.9 mph 82 % 0.00 in 130.0 W/m2 OVC
15:13 62.8 °F 57.2 °F 29.76 in NNE 0.8 mph 4.6 mph 82 % 0.00 in 176.0 W/m2 OVC
15:18 62.5 °F 57.3 °F 29.75 in NNE 0.3 mph 4.6 mph 83 % 0.00 in 244.0 W/m2 OVC
15:23 63.2 °F 58.6 °F 29.75 in NE 0.1 mph 4.6 mph 85 % 0.00 in 993.0 W/m2 OVC
15:29 64.1 °F 59.5 °F 29.75 in NNE 1.5 mph 5.8 mph 85 % 0.00 in 928.0 W/m2 OVC
15:34 63.5 °F 58.2 °F 29.75 in NNE 3.3 mph 8.1 mph 83 % 0.00 in 258.0 W/m2 OVC
15:39 63.7 °F 58.8 °F 29.75 in NE 0.1 mph 8.1 mph 84 % 0.00 in 988.0 W/m2 BKN
15:44 64.4 °F 58.8 °F 29.75 in East 1.9 mph 5.8 mph 82 % 0.00 in 478.0 W/m2 BKN
15:54 64.1 °F 58.1 °F 29.75 in NE 0.4 mph 6.9 mph 81 % 0.00 in 294.0 W/m2 BKN
15:59 63.7 °F 57.8 °F 29.75 in Calm   4.6 mph 81 % 0.00 in 403.0 W/m2 BKN
16:04 63.8 °F 57.9 °F 29.75 in SE 1.2 mph 4.6 mph 81 % 0.00 in 214.0 W/m2 BKN
16:09 63.5 °F 57.6 °F 29.76 in NE 0.3 mph 8.1 mph 81 % 0.00 in 174.0 W/m2 BKN
16:14 63.1 °F 57.5 °F 29.76 in SE 0.6 mph 8.1 mph 82 % 0.00 in 227.0 W/m2 BKN
16:19 63.0 °F 57.4 °F 29.76 in NE 0.7 mph 3.5 mph 82 % 0.00 in 297.0 W/m2 BKN
16:24 63.2 °F 57.6 °F 29.76 in ENE 0.6 mph 3.5 mph 82 % 0.00 in 475.0 W/m2 BKN
16:29 63.5 °F 57.6 °F 29.76 in NE 0.8 mph 3.5 mph 81 % 0.00 in 213.0 W/m2 BKN
16:34 63.3 °F 57.0 °F 29.76 in NNE 0.6 mph 4.6 mph 80 % 0.00 in 176.0 W/m2 BKN
16:39 63.0 °F 57.1 °F 29.76 in NE 0.1 mph 4.6 mph 81 % 0.00 in 107.0 W/m2 BKN
16:44 62.8 °F 56.9 °F 29.77 in NE 0.3 mph 4.6 mph 81 % 0.00 in 53.0 W/m2 BKN
16:49 62.4 °F 56.8 °F 29.76 in Calm   4.6 mph 82 % 0.00 in 105.0 W/m2 BKN
16:54 62.1 °F 56.9 °F 29.76 in SE 0.6 mph 4.6 mph 83 % 0.00 in 330.0 W/m2 OVC
16:59 62.3 °F 57.1 °F 29.77 in Calm   3.5 mph 83 % 0.00 in 190.0 W/m2 OVC
17:04 62.1 °F 56.9 °F 29.77 in Calm   3.5 mph 83 % 0.00 in 257.0 W/m2 -RA
17:09 62.4 °F 57.2 °F 29.76 in ENE 0.2 mph 3.5 mph 83 % 0.00 in 288.0 W/m2 -RA
17:14 62.9 °F 57.7 °F 29.76 in NE 0.1 mph 3.5 mph 83 % 0.00 in 545.0 W/m2 -RA
17:19 63.4 °F 57.8 °F 29.76 in Calm   3.5 mph 82 % 0.00 in 629.0 W/m2 -RA
17:24 63.3 °F 57.4 °F 29.77 in ESE 1.1 mph 5.8 mph 81 % 0.00 in 258.0 W/m2 -RA
17:29 62.3 °F 56.4 °F 29.77 in Calm   5.8 mph 81 % 0.00 in 171.0 W/m2 -RA
17:34 62.7 °F 57.5 °F 29.77 in NE 0.7 mph 5.8 mph 83 % 0.00 in 171.0 W/m2 -RA
17:40 62.4 °F 56.8 °F 29.77 in East 0.7 mph 6.9 mph 82 % 0.00 in 548.0 W/m2 BKN
17:45 62.1 °F 56.2 °F 29.77 in North 0.9 mph 6.9 mph 81 % 0.00 in 148.0 W/m2 BKN
17:50 61.6 °F 56.0 °F 29.77 in Calm   6.9 mph 82 % 0.00 in 130.0 W/m2 BKN
17:55 61.8 °F 56.6 °F 29.77 in Calm   4.0 mph 83 % 0.00 in 482.0 W/m2 BKN
18:00 62.1 °F 56.5 °F 29.78 in NE 0.1 mph 3.5 mph 82 % 0.00 in 144.0 W/m2 BKN
18:05 61.9 °F 56.3 °F 29.78 in Calm   2.0 mph 82 % 0.00 in 207.0 W/m2 BKN
18:10 61.5 °F 56.0 °F 29.78 in Calm   1.0 mph 82 % 0.00 in 192.0 W/m2 BKN
18:15 61.9 °F 56.3 °F 29.78 in ESE 1.2 mph 2.3 mph 82 % 0.00 in 353.0 W/m2 BKN
18:20 61.7 °F 55.8 °F 29.78 in Calm   2.0 mph 81 % 0.00 in 151.0 W/m2 BKN
18:25 61.8 °F 55.9 °F 29.79 in Calm   3.5 mph 81 % 0.00 in 146.0 W/m2 BKN
18:30 61.9 °F 56.0 °F 29.79 in Calm   2.3 mph 81 % 0.00 in 146.0 W/m2 BKN
18:35 61.8 °F 55.9 °F 29.79 in Calm   3.5 mph 81 % 0.00 in 67.0 W/m2 BKN
18:41 61.6 °F 56.0 °F 29.79 in Calm   3.5 mph 82 % 0.00 in 14.0 W/m2 BKN
18:46 61.3 °F 55.8 °F 29.79 in ESE 0.1 mph 3.5 mph 82 % 0.00 in 11.0 W/m2 BKN
18:51 61.1 °F 55.6 °F 29.80 in Calm   3.5 mph 82 % 0.00 in 16.0 W/m2 BKN
18:56 60.7 °F 55.5 °F 29.81 in Calm   2.3 mph 83 % 0.00 in 14.0 W/m2 BKN
19:01 60.4 °F 55.2 °F 29.81 in Calm   2.3 mph 83 % 0.00 in 11.0 W/m2 -RA
19:06 60.4 °F 55.2 °F 29.82 in Calm   2.3 mph 83 % 0.00 in 9.0 W/m2 -RA
19:11 60.3 °F 55.4 °F 29.82 in Calm   2.3 mph 84 % 0.00 in 11.0 W/m2 -RA
19:16 60.3 °F 55.4 °F 29.82 in Calm   1.2 mph 84 % 0.00 in 5.0 W/m2 -RA
19:21 60.3 °F 55.8 °F 29.83 in Calm   1.2 mph 85 % 0.00 in 0.0 W/m2 -RA
19:26 60.2 °F 55.7 °F 29.83 in Calm   1.2 mph 85 % 0.00 in 0.0 W/m2 -RA
19:31 59.9 °F 55.7 °F 29.83 in Calm   1.2 mph 86 % 0.01 in 5.0 W/m2 -RA
19:36 59.6 °F 55.4 °F 29.83 in Calm   1.2 mph 86 % 0.01 in 5.0 W/m2 -RA
19:41 59.3 °F 55.4 °F 29.83 in Calm     87 % 0.02 in 5.0 W/m2 -RA
19:42 59.2 °F 55.3 °F 29.83 in NNE 0.1 mph   87 % 0.02 in 5.0 W/m2 -RA
19:47 59.1 °F 55.5 °F 29.84 in Calm   1.2 mph 88 % 0.04 in 5.0 W/m2 -RA
19:52 58.7 °F 55.2 °F 29.84 in Calm   1.2 mph 88 % 0.07 in 5.0 W/m2 -RA
19:57 58.3 °F 55.1 °F 29.84 in Calm   3.5 mph 89 % 0.09 in 5.0 W/m2 -RA
20:02 58.1 °F 55.2 °F 29.84 in Calm   3.5 mph 90 % 0.12 in 5.0 W/m2 RA
20:07 58.0 °F 55.1 °F 29.84 in Calm   3.5 mph 90 % 0.14 in 0.0 W/m2 RA
20:12 57.8 °F 55.2 °F 29.84 in Calm     91 % 0.14 in 0.0 W/m2 RA
20:17 57.6 °F 55.0 °F 29.84 in Calm   1.2 mph 91 % 0.14 in 0.0 W/m2 OVC
20:22 57.6 °F 55.0 °F 29.84 in Calm   1.2 mph 91 % 0.14 in 0.0 W/m2 OVC
20:27 57.4 °F 54.8 °F 29.84 in Calm     91 % 0.14 in 0.0 W/m2 OVC
20:32 57.3 °F 55.0 °F 29.84 in Calm     92 % 0.13 in 0.0 W/m2 OVC
20:37 57.0 °F 54.7 °F 29.84 in ENE 0.1 mph 1.2 mph 92 % 0.13 in 0.0 W/m2 OVC
20:42 56.8 °F 54.5 °F 29.84 in Calm   1.2 mph 92 % 0.10 in 0.0 W/m2 OVC
20:47 56.7 °F 54.4 °F 29.84 in Calm   1.2 mph 92 % 0.08 in 0.0 W/m2 OVC
20:52 56.8 °F 54.8 °F 29.84 in Calm     93 % 0.06 in 0.0 W/m2 OVC
20:57 56.7 °F 54.7 °F 29.84 in Calm     93 % 0.04 in 0.0 W/m2 OVC
21:02 56.4 °F 54.1 °F 29.85 in Calm     92 % 0.01 in 0.0 W/m2 -RA
21:07 56.4 °F 54.4 °F 29.85 in Calm     93 % 0.00 in 0.0 W/m2 -RA
21:12 56.4 °F 54.4 °F 29.86 in Calm     93 % 0.00 in 0.0 W/m2 -RA
21:17 56.4 °F 54.4 °F 29.86 in Calm     93 % 0.00 in 0.0 W/m2 -RA
21:22 56.6 °F 54.6 °F 29.86 in Calm     93 % 0.00 in 0.0 W/m2 OVC
21:27 56.5 °F 54.5 °F 29.86 in Calm     93 % 0.00 in 0.0 W/m2 OVC
21:32 56.4 °F 54.4 °F 29.86 in Calm     93 % 0.00 in 0.0 W/m2 OVC
21:37 56.2 °F 54.2 °F 29.86 in Calm     93 % 0.00 in 0.0 W/m2 OVC
21:42 56.3 °F 54.3 °F 29.87 in Calm     93 % 0.00 in 0.0 W/m2 OVC
21:47 56.2 °F 54.2 °F 29.87 in Calm     93 % 0.00 in 0.0 W/m2 OVC
21:52 56.2 °F 54.2 °F 29.87 in Calm   1.2 mph 93 % 0.00 in 0.0 W/m2 OVC
21:57 56.3 °F 54.3 °F 29.87 in Calm   1.2 mph 93 % 0.00 in 0.0 W/m2 OVC
22:02 56.2 °F 54.2 °F 29.88 in Calm   1.2 mph 93 % 0.00 in 0.0 W/m2 OVC
22:07 56.1 °F 54.1 °F 29.88 in Calm     93 % 0.00 in 0.0 W/m2 OVC
22:12 56.1 °F 54.4 °F 29.88 in NNE 0.1 mph 1.2 mph 94 % 0.00 in 0.0 W/m2 OVC
22:17 55.9 °F 53.9 °F 29.88 in Calm   1.2 mph 93 % 0.00 in 0.0 W/m2 OVC
22:22 56.0 °F 54.3 °F 29.88 in Calm   1.2 mph 94 % 0.00 in 0.0 W/m2 OVC
22:27 56.0 °F 54.0 °F 29.88 in Calm   1.2 mph 93 % 0.00 in 0.0 W/m2 OVC
22:32 55.9 °F 53.9 °F 29.88 in Calm   1.2 mph 93 % 0.00 in 0.0 W/m2 OVC
22:37 55.8 °F 53.8 °F 29.89 in Calm     93 % 0.00 in 0.0 W/m2 OVC
22:42 55.8 °F 54.1 °F 29.89 in Calm     94 % 0.00 in 0.0 W/m2 OVC
22:48 55.6 °F 53.9 °F 29.88 in Calm     94 % 0.00 in 0.0 W/m2 OVC
22:53 55.6 °F 53.9 °F 29.89 in Calm     94 % 0.00 in 0.0 W/m2 OVC
22:58 55.6 °F 53.9 °F 29.89 in Calm   3.5 mph 94 % 0.00 in 0.0 W/m2 OVC
23:03 55.4 °F 53.7 °F 29.89 in Calm   3.5 mph 94 % 0.00 in 0.0 W/m2 -RA
23:08 55.5 °F 53.8 °F 29.89 in Calm   2.3 mph 94 % 0.00 in 0.0 W/m2 -RA
23:13 55.5 °F 53.8 °F 29.89 in Calm     94 % 0.00 in 0.0 W/m2 -RA
23:18 55.4 °F 53.7 °F 29.89 in Calm     94 % 0.00 in 0.0 W/m2 -RA
23:23 55.4 °F 53.7 °F 29.89 in Calm     94 % 0.00 in 0.0 W/m2 -RA
23:28 55.3 °F 53.6 °F 29.89 in Calm     94 % 0.00 in 0.0 W/m2 -RA
23:33 55.2 °F 53.5 °F 29.89 in Calm     94 % 0.00 in 0.0 W/m2 -RA
23:38 55.1 °F 53.1 °F 29.89 in Calm   2.3 mph 93 % 0.00 in 0.0 W/m2 -RA
23:43 55.1 °F 53.4 °F 29.89 in ENE 0.1 mph 2.3 mph 94 % 0.00 in 0.0 W/m2 -RA
23:48 55.1 °F 53.4 °F 29.89 in ENE 0.1 mph 1.2 mph 94 % 0.00 in 0.0 W/m2 -RA
23:53 55.1 °F 53.4 °F 29.90 in Calm   1.2 mph 94 % 0.00 in 0.0 W/m2 -RA
23:58 55.1 °F 53.4 °F 29.90 in SE 0.1 mph 1.2 mph 94 % 0.00 in 0.0 W/m2 -RA
Air Products Campus Weather
Compliments of Weather Underground - 3.5 mb